createdAt,value
2019-03-15T00:01:52.642Z,11.63
2019-03-15T00:04:21.816Z,12.58
2019-03-15T00:06:51.026Z,11.55
2019-03-15T00:09:20.209Z,11.63
2019-03-15T00:11:49.396Z,10.82
2019-03-15T00:14:18.649Z,11.10
2019-03-15T00:16:47.841Z,11.90
2019-03-15T00:19:17.089Z,11.83
2019-03-15T00:21:46.369Z,10.72
2019-03-15T00:24:15.535Z,12.20
2019-03-15T00:26:44.735Z,11.60
2019-03-15T00:29:13.948Z,10.80
2019-03-15T00:31:43.184Z,11.63
2019-03-15T00:34:12.361Z,11.05
2019-03-15T00:36:41.544Z,11.33
2019-03-15T00:39:10.766Z,11.50
2019-03-15T00:41:40.024Z,11.63
2019-03-15T00:44:09.279Z,10.38
2019-03-15T00:46:38.995Z,11.22
2019-03-15T00:49:08.206Z,11.22
2019-03-15T00:51:37.373Z,10.53
2019-03-15T00:54:07.553Z,11.22
2019-03-15T00:56:36.727Z,11.83
2019-03-15T00:59:05.911Z,11.43
2019-03-15T01:01:35.185Z,11.28
2019-03-15T01:04:04.426Z,11.38
2019-03-15T01:06:33.709Z,10.30
2019-03-15T01:09:02.950Z,11.12
2019-03-15T01:11:32.225Z,11.73
2019-03-15T01:14:01.510Z,12.18
2019-03-15T01:16:30.674Z,11.75
2019-03-15T01:18:59.914Z,12.15
2019-03-15T01:21:29.148Z,12.90
2019-03-15T01:23:58.330Z,11.88
2019-03-15T01:26:27.584Z,12.25
2019-03-15T01:28:56.777Z,12.13
2019-03-15T01:31:26.074Z,11.22
2019-03-15T01:33:55.316Z,11.38
2019-03-15T01:36:24.559Z,13.00
2019-03-15T01:38:53.753Z,13.40
2019-03-15T01:41:23.018Z,10.95
2019-03-15T01:43:52.218Z,11.30
2019-03-15T01:46:21.443Z,13.53
2019-03-15T01:48:50.617Z,14.13
2019-03-15T01:51:19.856Z,13.15
2019-03-15T01:53:49.135Z,14.07
2019-03-15T01:56:18.690Z,14.23
2019-03-15T01:58:48.169Z,13.60
2019-03-15T02:01:17.341Z,13.28
2019-03-15T02:03:46.592Z,14.00
2019-03-15T02:06:15.975Z,14.63
2019-03-15T02:08:45.150Z,14.98
2019-03-15T02:11:14.396Z,12.23
2019-03-15T02:13:43.629Z,12.80
2019-03-15T02:16:12.902Z,12.65
2019-03-15T02:18:42.079Z,13.58
2019-03-15T02:21:11.351Z,12.47
2019-03-15T02:23:40.588Z,12.10
2019-03-15T02:26:09.832Z,12.37
2019-03-15T02:28:39.061Z,9.28
2019-03-15T02:31:08.301Z,13.78
2019-03-15T02:33:37.490Z,13.15
2019-03-15T02:36:06.702Z,12.78
2019-03-15T02:38:35.955Z,12.98
2019-03-15T02:41:05.453Z,12.80
2019-03-15T02:43:35.065Z,12.28
2019-03-15T02:46:04.252Z,13.80
2019-03-15T02:48:33.411Z,13.40
2019-03-15T02:51:02.644Z,13.25
2019-03-15T02:53:31.801Z,13.75
2019-03-15T02:56:00.992Z,13.22
2019-03-15T02:58:30.189Z,13.30
2019-03-15T03:00:59.381Z,12.23
2019-03-15T03:03:28.771Z,14.15
2019-03-15T03:05:57.980Z,15.60
2019-03-15T03:08:27.220Z,14.70
2019-03-15T03:10:56.437Z,15.32
2019-03-15T03:13:25.706Z,15.30
2019-03-15T03:15:54.968Z,16.25
2019-03-15T03:18:24.265Z,15.32
2019-03-15T03:20:53.516Z,12.78
2019-03-15T03:23:22.751Z,14.58
2019-03-15T03:25:52.028Z,14.55
2019-03-15T03:28:21.233Z,15.40
2019-03-15T03:30:50.420Z,14.65
2019-03-15T03:33:19.609Z,13.88
2019-03-15T03:35:48.849Z,14.68
2019-03-15T03:38:18.074Z,13.55
2019-03-15T03:40:56.287Z,12.70
2019-03-15T03:43:25.578Z,12.90
2019-03-15T03:45:54.746Z,14.47
2019-03-15T03:48:24.986Z,13.05
2019-03-15T03:50:54.249Z,12.70
2019-03-15T03:53:23.416Z,13.43
2019-03-15T03:55:52.583Z,12.85
2019-03-15T03:58:21.826Z,13.25
2019-03-15T04:00:51.063Z,11.97
2019-03-15T04:03:20.326Z,10.60
2019-03-15T04:05:49.547Z,12.15
2019-03-15T04:08:18.794Z,12.35
2019-03-15T04:10:48.038Z,11.85
2019-03-15T04:13:17.382Z,12.13
2019-03-15T04:15:46.651Z,11.63
2019-03-15T04:18:15.868Z,11.97
2019-03-15T04:20:45.045Z,11.83
2019-03-15T04:23:14.212Z,10.72
2019-03-15T04:25:43.413Z,11.05
2019-03-15T04:28:12.651Z,12.05
2019-03-15T04:30:41.928Z,11.85
2019-03-15T04:33:11.107Z,11.97
2019-03-15T04:35:40.407Z,10.65
2019-03-15T04:38:09.592Z,10.80
2019-03-15T04:40:38.771Z,11.50
2019-03-15T04:43:07.979Z,11.50
2019-03-15T04:45:37.250Z,10.58
2019-03-15T04:48:06.537Z,10.72
2019-03-15T04:50:35.804Z,10.75
2019-03-15T04:53:05.058Z,10.32
2019-03-15T04:55:34.222Z,10.32
2019-03-15T04:58:03.527Z,10.13
2019-03-15T05:00:34.229Z,9.95
2019-03-15T05:03:03.529Z,10.90
2019-03-15T05:05:32.703Z,9.83
2019-03-15T05:08:01.949Z,10.60
2019-03-15T05:10:31.306Z,9.95
2019-03-15T05:13:00.566Z,10.80
2019-03-15T05:15:29.745Z,9.75
2019-03-15T05:17:59.015Z,10.20
2019-03-15T05:20:28.344Z,9.50
2019-03-15T05:22:57.625Z,9.80
2019-03-15T05:25:29.734Z,9.23
2019-03-15T05:27:58.340Z,10.18
2019-03-15T05:30:28.188Z,10.58
2019-03-15T05:32:57.456Z,8.50
2019-03-15T05:35:26.752Z,9.45
2019-03-15T05:37:56.050Z,7.92
2019-03-15T05:40:25.373Z,9.40
2019-03-15T05:42:54.661Z,8.65
2019-03-15T05:45:23.907Z,9.70
2019-03-15T05:47:53.547Z,13.48
2019-03-15T05:50:22.755Z,10.38
2019-03-15T05:52:52.144Z,9.75
2019-03-15T05:55:21.519Z,8.10
2019-03-15T05:57:50.839Z,8.15
2019-03-15T06:00:20.095Z,10.05
2019-03-15T06:02:49.449Z,8.15
2019-03-15T06:05:18.829Z,8.65
2019-03-15T06:07:48.186Z,7.60
2019-03-15T06:10:17.515Z,7.62
2019-03-15T06:12:46.970Z,7.95
2019-03-15T06:15:16.250Z,6.97
2019-03-15T06:17:45.578Z,7.72
2019-03-15T06:20:15.049Z,7.40
2019-03-15T06:22:44.301Z,6.47
2019-03-15T06:25:13.990Z,6.80
2019-03-15T06:27:43.334Z,6.45
2019-03-15T06:30:15.710Z,7.30
2019-03-15T06:35:13.693Z,5.87
2019-03-15T06:37:42.943Z,6.37
2019-03-15T06:40:13.782Z,6.92
2019-03-15T06:42:43.544Z,6.00
2019-03-15T06:45:15.820Z,6.55
2019-03-15T06:47:45.765Z,6.00
2019-03-15T06:50:15.133Z,5.67
2019-03-15T06:52:44.442Z,6.30
2019-03-15T06:55:13.870Z,7.60
2019-03-15T06:57:43.064Z,6.20
2019-03-15T07:00:14.164Z,5.45
2019-03-15T07:02:43.576Z,7.33
2019-03-15T07:05:12.956Z,5.42
2019-03-15T07:07:42.294Z,7.08
2019-03-15T07:10:11.833Z,5.70
2019-03-15T07:12:41.094Z,5.40
2019-03-15T07:15:11.988Z,7.00
2019-03-15T07:17:41.857Z,5.10
2019-03-15T07:20:29.091Z,6.08
2019-03-15T07:22:58.404Z,6.17
2019-03-15T07:25:28.554Z,5.72
2019-03-15T07:27:57.817Z,5.40
2019-03-15T07:30:27.024Z,4.72
2019-03-15T07:32:56.588Z,5.62
2019-03-15T07:35:26.025Z,5.30
2019-03-15T07:37:55.397Z,6.35
2019-03-15T07:40:24.706Z,6.60
2019-03-15T07:42:54.112Z,5.35
2019-03-15T07:45:23.369Z,5.17
2019-03-15T07:47:52.641Z,6.20
2019-03-15T07:50:21.932Z,5.85
2019-03-15T07:52:51.322Z,5.85
2019-03-15T07:55:20.671Z,5.25
2019-03-15T07:57:50.081Z,6.08
2019-03-15T08:00:19.427Z,6.00
2019-03-15T08:02:48.753Z,6.00
2019-03-15T08:05:18.008Z,5.42
2019-03-15T08:07:47.297Z,6.85
2019-03-15T08:10:16.627Z,9.93
2019-03-15T08:12:49.337Z,6.97
2019-03-15T08:15:16.915Z,6.22
2019-03-15T08:17:46.308Z,9.28
2019-03-15T08:20:15.647Z,6.75
2019-03-15T08:22:44.989Z,4.25
2019-03-15T08:25:14.457Z,4.65
2019-03-15T08:27:43.779Z,6.37
2019-03-15T08:30:14.369Z,6.22
2019-03-15T08:32:44.196Z,6.55
2019-03-15T08:35:13.814Z,5.53
2019-03-15T08:37:42.970Z,5.70
2019-03-15T08:40:13.475Z,5.67
2019-03-15T08:42:42.712Z,5.08
2019-03-15T08:45:19.110Z,5.83
2019-03-15T08:47:48.377Z,4.75
2019-03-15T08:50:18.923Z,6.47
2019-03-15T08:52:48.343Z,4.35
2019-03-15T08:55:17.727Z,4.50
2019-03-15T08:57:47.209Z,5.47
2019-03-15T09:00:19.762Z,5.62
2019-03-15T09:02:49.023Z,4.30
2019-03-15T09:05:18.493Z,3.90
2019-03-15T09:07:47.926Z,4.83
2019-03-15T09:10:23.827Z,4.87
2019-03-15T09:12:50.383Z,4.15
2019-03-15T09:15:19.836Z,4.65
2019-03-15T09:17:49.081Z,4.25
2019-03-15T09:20:18.396Z,4.03
2019-03-15T09:22:47.660Z,4.22
2019-03-15T09:25:20.427Z,4.55
2019-03-15T09:27:48.821Z,3.98
2019-03-15T09:30:23.519Z,5.12
2019-03-15T09:32:49.399Z,5.20
2019-03-15T09:35:18.722Z,4.80
2019-03-15T09:37:48.068Z,5.00
2019-03-15T09:40:17.413Z,6.50
2019-03-15T09:42:46.833Z,6.62
2019-03-15T09:45:17.283Z,5.37
2019-03-15T09:47:46.578Z,5.53
2019-03-15T09:50:24.997Z,4.97
2019-03-15T09:52:47.706Z,5.45
2019-03-15T09:55:16.940Z,5.97
2019-03-15T09:57:46.213Z,5.62
2019-03-15T10:00:21.963Z,6.20
2019-03-15T10:02:51.355Z,5.35
2019-03-15T10:05:20.742Z,4.83
2019-03-15T10:07:50.067Z,4.85
2019-03-15T10:10:20.273Z,4.80
2019-03-15T10:12:49.534Z,4.35
2019-03-15T10:15:18.798Z,4.42
2019-03-15T10:17:48.018Z,4.33
2019-03-15T10:20:17.267Z,4.95
2019-03-15T10:23:04.222Z,4.65
2019-03-15T10:25:17.887Z,4.62
2019-03-15T10:27:47.168Z,4.92
2019-03-15T10:30:17.782Z,4.55
2019-03-15T10:32:47.102Z,4.40
2019-03-15T10:35:16.340Z,4.15
2019-03-15T10:37:45.686Z,4.17
2019-03-15T10:40:24.620Z,4.25
2019-03-15T10:42:55.548Z,4.87
2019-03-15T10:45:25.043Z,5.08
2019-03-15T10:47:54.368Z,5.40
2019-03-15T10:50:23.629Z,5.15
2019-03-15T10:52:53.933Z,5.08
2019-03-15T10:55:23.541Z,5.10
2019-03-15T10:57:52.844Z,5.33
2019-03-15T11:00:22.088Z,5.60
2019-03-15T11:02:51.456Z,6.03
2019-03-15T11:05:20.882Z,5.37
2019-03-15T11:07:50.399Z,5.25
2019-03-15T11:10:19.926Z,5.92
2019-03-15T11:12:49.522Z,4.42
2019-03-15T11:15:18.781Z,4.80
2019-03-15T11:17:48.071Z,5.30
2019-03-15T11:20:17.385Z,5.12
2019-03-15T11:22:46.786Z,5.00
2019-03-15T11:25:16.205Z,5.53
2019-03-15T11:27:45.603Z,5.28
2019-03-15T11:30:15.036Z,5.28
2019-03-15T11:32:44.333Z,5.00
2019-03-15T11:35:13.577Z,5.40
2019-03-15T11:37:42.995Z,6.22
2019-03-15T11:40:19.124Z,5.22
2019-03-15T11:42:48.271Z,4.75
2019-03-15T16:03:06.368Z,5.92
2019-03-15T16:05:35.616Z,9.18
2019-03-15T16:08:04.806Z,5.72
2019-03-15T16:10:34.147Z,6.20
2019-03-15T16:13:16.593Z,7.00
2019-03-15T16:15:34.394Z,5.70
2019-03-15T16:18:03.717Z,6.50
2019-03-15T16:20:32.981Z,7.10
2019-03-15T16:23:02.307Z,6.40
2019-03-15T16:25:31.542Z,7.17
2019-03-15T16:28:00.718Z,5.58
2019-03-15T16:30:29.898Z,8.05
2019-03-15T16:32:59.167Z,7.72
2019-03-15T16:35:28.401Z,4.90
2019-03-15T16:37:57.744Z,5.33
2019-03-15T16:40:26.957Z,4.83
2019-03-15T16:42:56.135Z,6.55
2019-03-15T16:45:32.775Z,6.03
2019-03-15T16:48:06.158Z,7.00
2019-03-15T16:50:35.328Z,7.05
2019-03-15T16:53:04.623Z,5.15
2019-03-15T16:55:33.811Z,5.10
2019-03-15T16:58:03.105Z,4.92
2019-03-15T17:00:32.292Z,6.80
2019-03-15T17:03:01.466Z,5.95
2019-03-15T17:05:30.661Z,7.15
2019-03-15T17:07:59.900Z,6.10
2019-03-15T17:10:29.150Z,8.00
2019-03-15T17:12:58.504Z,6.80
2019-03-15T17:15:29.303Z,6.72
2019-03-15T17:17:58.600Z,7.67
2019-03-15T17:20:27.842Z,6.60
2019-03-15T17:22:57.025Z,11.83
2019-03-15T17:25:26.224Z,14.98
2019-03-15T17:27:55.407Z,21.20
2019-03-15T17:30:24.667Z,9.28
2019-03-15T17:32:53.897Z,7.92
2019-03-15T17:35:23.143Z,9.73
2019-03-15T17:37:52.377Z,9.30
2019-03-15T17:40:21.996Z,8.78
2019-03-15T17:42:51.237Z,10.65
2019-03-15T17:45:20.547Z,11.48
2019-03-15T17:47:49.730Z,14.90
2019-03-15T17:50:26.970Z,11.95
2019-03-15T17:52:56.140Z,13.60
2019-03-15T17:55:25.310Z,11.85
2019-03-15T17:57:54.656Z,12.00
2019-03-15T18:00:47.837Z,13.68
2019-03-15T18:03:21.575Z,13.45
2019-03-15T18:05:48.612Z,11.33
2019-03-15T18:08:17.893Z,14.43
2019-03-15T18:10:47.143Z,13.28
2019-03-15T18:13:16.743Z,10.98
2019-03-15T18:15:45.999Z,12.58
2019-03-15T18:18:15.225Z,13.40
2019-03-15T18:20:44.437Z,18.23
2019-03-15T18:23:15.380Z,15.90
2019-03-15T18:25:44.563Z,14.05
2019-03-15T18:28:13.729Z,16.35
2019-03-15T18:30:43.153Z,14.58
2019-03-15T18:33:12.474Z,21.65
2019-03-15T18:35:41.831Z,12.47
2019-03-15T18:38:11.663Z,12.43
2019-03-15T18:40:40.969Z,13.60
2019-03-15T18:43:10.215Z,14.73
2019-03-15T18:45:39.529Z,15.00
2019-03-15T18:48:08.774Z,13.55
2019-03-15T18:50:37.954Z,10.55
2019-03-15T18:53:07.244Z,13.22
2019-03-15T18:55:36.663Z,12.58
2019-03-15T18:58:05.912Z,10.95
2019-03-15T19:00:35.159Z,11.10
2019-03-15T19:03:04.502Z,12.30
2019-03-15T19:05:33.664Z,12.47
2019-03-15T19:08:03.455Z,16.75
2019-03-15T19:10:32.708Z,12.50
2019-03-15T19:13:01.943Z,11.68
2019-03-15T19:15:31.483Z,9.30
2019-03-15T19:18:00.716Z,11.40
2019-03-15T19:20:29.927Z,12.05
2019-03-15T19:22:59.618Z,11.15
2019-03-15T19:25:28.894Z,9.73
2019-03-15T19:27:58.127Z,10.72
2019-03-15T19:30:27.410Z,11.22
2019-03-15T19:32:56.701Z,12.07
2019-03-15T19:35:25.955Z,11.33
2019-03-15T19:37:55.260Z,10.25
2019-03-15T19:40:24.415Z,10.32
2019-03-15T19:42:53.646Z,12.13
2019-03-15T19:45:22.917Z,12.20
2019-03-15T19:47:52.103Z,11.65
2019-03-15T19:50:21.805Z,11.97
2019-03-15T19:52:51.108Z,12.23
2019-03-15T19:55:21.396Z,11.57
2019-03-15T19:57:50.679Z,11.38
2019-03-15T20:00:23.432Z,11.70
2019-03-15T20:02:52.770Z,12.15
2019-03-15T20:05:22.145Z,11.00
2019-03-15T20:07:51.573Z,10.82
2019-03-15T20:10:21.020Z,11.43
2019-03-15T20:12:50.258Z,10.75
2019-03-15T20:15:19.580Z,12.37
2019-03-15T20:17:48.761Z,12.40
2019-03-15T20:20:19.157Z,12.35
2019-03-15T20:22:48.367Z,11.68
2019-03-15T20:25:18.152Z,11.63
2019-03-15T20:27:47.795Z,12.33
2019-03-15T20:30:26.560Z,15.05
2019-03-15T20:32:55.628Z,10.60
2019-03-15T20:35:24.864Z,14.25
2019-03-15T20:37:54.114Z,12.70
2019-03-15T20:40:23.385Z,11.22
2019-03-15T20:42:52.550Z,10.68
2019-03-15T20:45:26.583Z,13.08
2019-03-15T20:47:55.880Z,13.65
2019-03-15T20:50:25.045Z,13.13
2019-03-15T20:53:07.255Z,12.70
2019-03-15T20:55:28.413Z,11.65
2019-03-15T20:57:57.924Z,11.80
2019-03-15T21:00:35.462Z,12.85
2019-03-15T21:02:58.347Z,12.80
2019-03-15T21:05:27.588Z,12.18
2019-03-15T21:07:56.767Z,12.75
2019-03-15T21:10:25.971Z,12.33
2019-03-15T21:12:55.275Z,14.70
2019-03-15T21:15:24.522Z,13.13
2019-03-15T21:17:53.687Z,14.47
2019-03-15T21:20:23.172Z,12.45
2019-03-15T21:22:52.503Z,12.37
2019-03-15T21:25:21.715Z,10.98
2019-03-15T21:27:54.087Z,12.68
2019-03-15T21:30:23.527Z,13.72
2019-03-15T21:32:52.843Z,12.73
2019-03-15T21:35:22.068Z,12.35
2019-03-15T21:37:51.701Z,13.22
2019-03-15T21:40:22.019Z,13.28
2019-03-15T21:42:51.237Z,12.75
2019-03-15T21:45:20.479Z,13.60
2019-03-15T21:47:49.721Z,13.40
2019-03-15T21:50:20.420Z,12.98
2019-03-15T21:52:49.597Z,11.85
2019-03-15T21:55:18.885Z,12.93
2019-03-15T21:57:48.068Z,13.48
2019-03-15T22:00:18.303Z,12.30
2019-03-15T22:02:47.854Z,13.43
2019-03-15T22:05:17.138Z,11.65
2019-03-15T22:07:46.313Z,14.47
2019-03-15T22:10:16.568Z,15.80
2019-03-15T22:12:45.820Z,13.32
2019-03-15T22:15:15.063Z,14.73
2019-03-15T22:17:44.364Z,12.05
2019-03-15T22:20:15.938Z,12.53
2019-03-15T22:22:45.301Z,15.13
2019-03-15T22:25:14.582Z,14.95
2019-03-15T22:27:43.755Z,15.38
2019-03-15T22:30:16.711Z,17.87
2019-03-15T22:32:45.890Z,15.13
2019-03-15T22:35:15.131Z,14.93
2019-03-15T22:37:44.337Z,16.23
2019-03-15T22:40:14.652Z,17.87
2019-03-15T22:42:44.329Z,16.80
2019-03-15T22:45:14.345Z,15.13
2019-03-15T22:47:43.588Z,17.42
2019-03-15T22:50:16.495Z,12.73
2019-03-15T22:52:45.674Z,14.90
2019-03-15T22:55:14.934Z,16.95
2019-03-15T22:57:44.184Z,18.50
2019-03-15T23:00:18.060Z,16.55
2019-03-15T23:02:47.362Z,16.48
2019-03-15T23:05:16.569Z,16.87
2019-03-15T23:07:45.763Z,17.05
2019-03-15T23:10:15.002Z,18.65
2019-03-15T23:12:44.287Z,16.55
2019-03-15T23:15:13.485Z,18.98
2019-03-15T23:17:42.721Z,17.00
2019-03-15T23:20:14.053Z,18.37
2019-03-15T23:22:43.306Z,18.62
2019-03-15T23:25:12.553Z,17.82
2019-03-15T23:27:41.741Z,17.55
2019-03-15T23:30:14.220Z,16.80
2019-03-15T23:32:43.394Z,18.12
2019-03-15T23:35:12.631Z,17.02
2019-03-15T23:37:41.931Z,18.65
2019-03-15T23:40:12.519Z,18.57
2019-03-15T23:42:41.693Z,18.55
2019-03-15T23:45:11.266Z,17.62
2019-03-15T23:47:40.507Z,14.78
2019-03-15T23:50:11.675Z,16.05
2019-03-15T23:52:41.001Z,14.20
2019-03-15T23:55:10.153Z,14.87
2019-03-15T23:57:39.357Z,14.10
